sensor_id;sensor_type;location;lat;lon;timestamp;temperature;humidity
45435;DHT22;31183;47.404;8.500;2023-04-24T00:01:01;12.00;97.90
45435;DHT22;31183;47.404;8.500;2023-04-24T00:03:28;12.00;98.00
45435;DHT22;31183;47.404;8.500;2023-04-24T00:05:56;11.90;98.00
45435;DHT22;31183;47.404;8.500;2023-04-24T00:08:22;11.90;98.60
45435;DHT22;31183;47.404;8.500;2023-04-24T00:10:50;11.90;99.00
45435;DHT22;31183;47.404;8.500;2023-04-24T00:13:18;11.80;98.90
45435;DHT22;31183;47.404;8.500;2023-04-24T00:15:45;11.80;98.80
45435;DHT22;31183;47.404;8.500;2023-04-24T00:18:12;11.80;98.90
45435;DHT22;31183;47.404;8.500;2023-04-24T00:20:38;11.80;98.60
45435;DHT22;31183;47.404;8.500;2023-04-24T00:23:06;11.80;98.20
45435;DHT22;31183;47.404;8.500;2023-04-24T00:25:32;11.80;98.30
45435;DHT22;31183;47.404;8.500;2023-04-24T00:27:59;11.70;98.70
45435;DHT22;31183;47.404;8.500;2023-04-24T00:30:26;11.70;98.50
45435;DHT22;31183;47.404;8.500;2023-04-24T00:32:53;11.60;98.60
45435;DHT22;31183;47.404;8.500;2023-04-24T00:35:19;11.60;98.40
45435;DHT22;31183;47.404;8.500;2023-04-24T00:37:46;11.60;98.60
45435;DHT22;31183;47.404;8.500;2023-04-24T00:40:13;11.60;98.40
45435;DHT22;31183;47.404;8.500;2023-04-24T00:42:40;11.60;98.20
45435;DHT22;31183;47.404;8.500;2023-04-24T00:45:07;11.60;98.40
45435;DHT22;31183;47.404;8.500;2023-04-24T00:47:34;11.60;98.20
45435;DHT22;31183;47.404;8.500;2023-04-24T00:50:02;11.50;98.30
45435;DHT22;31183;47.404;8.500;2023-04-24T00:52:29;11.50;98.30
45435;DHT22;31183;47.404;8.500;2023-04-24T00:54:58;11.50;98.10
45435;DHT22;31183;47.404;8.500;2023-04-24T00:57:25;11.50;97.80
45435;DHT22;31183;47.404;8.500;2023-04-24T00:59:52;11.50;97.80
45435;DHT22;31183;47.404;8.500;2023-04-24T01:02:20;11.50;97.60
45435;DHT22;31183;47.404;8.500;2023-04-24T01:04:49;11.50;97.60
45435;DHT22;31183;47.404;8.500;2023-04-24T01:07:17;11.50;97.50
45435;DHT22;31183;47.404;8.500;2023-04-24T01:09:45;11.50;97.50
45435;DHT22;31183;47.404;8.500;2023-04-24T01:12:15;11.50;97.40
45435;DHT22;31183;47.404;8.500;2023-04-24T01:14:42;11.50;97.30
45435;DHT22;31183;47.404;8.500;2023-04-24T01:17:09;11.60;97.00
45435;DHT22;31183;47.404;8.500;2023-04-24T01:19:35;11.60;96.90
45435;DHT22;31183;47.404;8.500;2023-04-24T01:22:08;11.60;97.00
45435;DHT22;31183;47.404;8.500;2023-04-24T01:24:34;11.50;97.00
45435;DHT22;31183;47.404;8.500;2023-04-24T01:27:01;11.60;96.60
45435;DHT22;31183;47.404;8.500;2023-04-24T01:29:28;11.60;96.70
45435;DHT22;31183;47.404;8.500;2023-04-24T01:31:55;11.50;96.60
45435;DHT22;31183;47.404;8.500;2023-04-24T01:34:21;11.50;96.60
45435;DHT22;31183;47.404;8.500;2023-04-24T01:36:48;11.50;97.10
45435;DHT22;31183;47.404;8.500;2023-04-24T01:39:15;11.50;96.60
45435;DHT22;31183;47.404;8.500;2023-04-24T01:41:43;11.50;97.10
45435;DHT22;31183;47.404;8.500;2023-04-24T01:44:09;11.50;97.40
45435;DHT22;31183;47.404;8.500;2023-04-24T01:46:36;11.40;97.20
45435;DHT22;31183;47.404;8.500;2023-04-24T01:49:02;11.40;97.40
45435;DHT22;31183;47.404;8.500;2023-04-24T01:51:29;11.40;97.60
45435;DHT22;31183;47.404;8.500;2023-04-24T01:53:56;11.40;97.70
45435;DHT22;31183;47.404;8.500;2023-04-24T01:56:23;11.30;98.00
45435;DHT22;31183;47.404;8.500;2023-04-24T01:58:52;11.20;98.20
45435;DHT22;31183;47.404;8.500;2023-04-24T02:01:20;11.30;98.00
45435;DHT22;31183;47.404;8.500;2023-04-24T02:03:47;11.20;98.00
45435;DHT22;31183;47.404;8.500;2023-04-24T02:06:14;11.20;98.00
45435;DHT22;31183;47.404;8.500;2023-04-24T02:08:41;11.20;98.30
45435;DHT22;31183;47.404;8.500;2023-04-24T02:11:10;11.10;97.60
45435;DHT22;31183;47.404;8.500;2023-04-24T02:13:37;11.10;97.70
45435;DHT22;31183;47.404;8.500;2023-04-24T02:16:04;11.10;97.90
45435;DHT22;31183;47.404;8.500;2023-04-24T02:18:30;11.10;97.90
45435;DHT22;31183;47.404;8.500;2023-04-24T02:20:57;11.10;97.90
45435;DHT22;31183;47.404;8.500;2023-04-24T02:23:24;11.10;97.50
45435;DHT22;31183;47.404;8.500;2023-04-24T02:25:50;11.10;97.50
45435;DHT22;31183;47.404;8.500;2023-04-24T02:28:19;11.10;97.60
45435;DHT22;31183;47.404;8.500;2023-04-24T02:30:46;11.10;97.20
45435;DHT22;31183;47.404;8.500;2023-04-24T02:33:12;11.10;97.40
45435;DHT22;31183;47.404;8.500;2023-04-24T02:35:39;11.10;97.40
45435;DHT22;31183;47.404;8.500;2023-04-24T02:38:06;11.00;97.60
45435;DHT22;31183;47.404;8.500;2023-04-24T02:40:32;11.00;97.70
45435;DHT22;31183;47.404;8.500;2023-04-24T02:42:59;11.00;97.90
45435;DHT22;31183;47.404;8.500;2023-04-24T02:45:26;11.00;97.60
45435;DHT22;31183;47.404;8.500;2023-04-24T02:47:52;11.00;97.50
45435;DHT22;31183;47.404;8.500;2023-04-24T02:50:19;11.00;97.30
45435;DHT22;31183;47.404;8.500;2023-04-24T02:52:45;11.00;97.20
45435;DHT22;31183;47.404;8.500;2023-04-24T02:55:12;11.00;97.40
45435;DHT22;31183;47.404;8.500;2023-04-24T02:57:39;11.00;97.40
45435;DHT22;31183;47.404;8.500;2023-04-24T03:00:06;11.00;97.20
45435;DHT22;31183;47.404;8.500;2023-04-24T03:02:33;11.00;97.10
45435;DHT22;31183;47.404;8.500;2023-04-24T03:05:00;11.00;97.20
45435;DHT22;31183;47.404;8.500;2023-04-24T03:07:28;11.10;97.20
45435;DHT22;31183;47.404;8.500;2023-04-24T03:09:55;11.10;97.60
45435;DHT22;31183;47.404;8.500;2023-04-24T03:12:22;11.10;98.00
45435;DHT22;31183;47.404;8.500;2023-04-24T03:14:50;11.00;98.00
45435;DHT22;31183;47.404;8.500;2023-04-24T03:17:16;11.10;97.60
45435;DHT22;31183;47.404;8.500;2023-04-24T03:19:43;11.00;97.40
45435;DHT22;31183;47.404;8.500;2023-04-24T03:22:10;11.00;97.30
45435;DHT22;31183;47.404;8.500;2023-04-24T03:24:37;11.00;97.10
45435;DHT22;31183;47.404;8.500;2023-04-24T03:27:04;11.00;97.10
45435;DHT22;31183;47.404;8.500;2023-04-24T03:29:31;11.00;97.10
45435;DHT22;31183;47.404;8.500;2023-04-24T03:31:57;11.00;96.80
45435;DHT22;31183;47.404;8.500;2023-04-24T03:34:24;11.00;96.70
45435;DHT22;31183;47.404;8.500;2023-04-24T03:36:51;10.90;96.90
45435;DHT22;31183;47.404;8.500;2023-04-24T03:39:19;10.80;96.90
45435;DHT22;31183;47.404;8.500;2023-04-24T03:41:46;10.80;97.20
45435;DHT22;31183;47.404;8.500;2023-04-24T03:44:12;10.80;97.10
45435;DHT22;31183;47.404;8.500;2023-04-24T03:46:39;10.70;97.00
45435;DHT22;31183;47.404;8.500;2023-04-24T03:49:05;10.70;96.90
45435;DHT22;31183;47.404;8.500;2023-04-24T03:51:32;10.70;96.80
45435;DHT22;31183;47.404;8.500;2023-04-24T03:53:59;10.70;96.80
45435;DHT22;31183;47.404;8.500;2023-04-24T03:56:25;10.70;96.90
45435;DHT22;31183;47.404;8.500;2023-04-24T03:58:52;10.70;96.70
45435;DHT22;31183;47.404;8.500;2023-04-24T04:01:18;10.70;96.90
45435;DHT22;31183;47.404;8.500;2023-04-24T04:03:46;10.70;96.90
45435;DHT22;31183;47.404;8.500;2023-04-24T04:06:14;10.70;96.80
45435;DHT22;31183;47.404;8.500;2023-04-24T04:08:41;10.70;96.60
45435;DHT22;31183;47.404;8.500;2023-04-24T04:11:07;10.60;96.60
45435;DHT22;31183;47.404;8.500;2023-04-24T04:13:34;10.60;96.60
45435;DHT22;31183;47.404;8.500;2023-04-24T04:16:00;10.60;96.70
45435;DHT22;31183;47.404;8.500;2023-04-24T04:18:27;10.50;96.60
45435;DHT22;31183;47.404;8.500;2023-04-24T04:20:54;10.50;97.20
45435;DHT22;31183;47.404;8.500;2023-04-24T04:23:20;10.50;97.50
45435;DHT22;31183;47.404;8.500;2023-04-24T04:25:47;10.40;98.00
45435;DHT22;31183;47.404;8.500;2023-04-24T04:28:13;10.40;98.20
45435;DHT22;31183;47.404;8.500;2023-04-24T04:30:40;10.40;98.50
45435;DHT22;31183;47.404;8.500;2023-04-24T04:33:07;10.30;98.50
45435;DHT22;31183;47.404;8.500;2023-04-24T04:35:34;10.30;98.50
45435;DHT22;31183;47.404;8.500;2023-04-24T04:38:01;10.30;98.60
45435;DHT22;31183;47.404;8.500;2023-04-24T04:40:28;10.30;99.10
45435;DHT22;31183;47.404;8.500;2023-04-24T04:42:54;10.30;99.20
45435;DHT22;31183;47.404;8.500;2023-04-24T04:45:21;10.30;99.50
45435;DHT22;31183;47.404;8.500;2023-04-24T04:47:48;10.30;99.70
45435;DHT22;31183;47.404;8.500;2023-04-24T04:50:15;10.40;99.80
45435;DHT22;31183;47.404;8.500;2023-04-24T04:52:43;10.40;99.60
45435;DHT22;31183;47.404;8.500;2023-04-24T04:55:09;10.50;99.70
45435;DHT22;31183;47.404;8.500;2023-04-24T04:57:36;10.50;99.70
45435;DHT22;31183;47.404;8.500;2023-04-24T05:00:03;10.50;99.90
45435;DHT22;31183;47.404;8.500;2023-04-24T05:02:30;10.60;99.90
45435;DHT22;31183;47.404;8.500;2023-04-24T05:04:57;10.60;99.90
45435;DHT22;31183;47.404;8.500;2023-04-24T05:07:24;10.50;99.90
45435;DHT22;31183;47.404;8.500;2023-04-24T05:09:50;10.50;99.90
45435;DHT22;31183;47.404;8.500;2023-04-24T05:12:18;10.50;99.90
45435;DHT22;31183;47.404;8.500;2023-04-24T05:14:45;10.40;99.90
45435;DHT22;31183;47.404;8.500;2023-04-24T05:17:11;10.40;99.90
45435;DHT22;31183;47.404;8.500;2023-04-24T05:19:38;10.30;99.90
45435;DHT22;31183;47.404;8.500;2023-04-24T05:22:05;10.30;99.90
45435;DHT22;31183;47.404;8.500;2023-04-24T05:24:34;10.30;99.90
45435;DHT22;31183;47.404;8.500;2023-04-24T05:27:01;10.30;99.90
45435;DHT22;31183;47.404;8.500;2023-04-24T05:29:28;10.20;99.90
45435;DHT22;31183;47.404;8.500;2023-04-24T05:31:57;10.20;99.90
45435;DHT22;31183;47.404;8.500;2023-04-24T05:34:24;10.30;99.90
45435;DHT22;31183;47.404;8.500;2023-04-24T05:36:51;10.30;99.90
45435;DHT22;31183;47.404;8.500;2023-04-24T05:39:18;10.30;99.90
45435;DHT22;31183;47.404;8.500;2023-04-24T05:41:46;10.40;99.90
45435;DHT22;31183;47.404;8.500;2023-04-24T05:44:12;10.40;99.90
45435;DHT22;31183;47.404;8.500;2023-04-24T05:46:39;10.30;99.90
45435;DHT22;31183;47.404;8.500;2023-04-24T05:49:05;10.30;99.90
45435;DHT22;31183;47.404;8.500;2023-04-24T05:51:32;10.30;99.90
45435;DHT22;31183;47.404;8.500;2023-04-24T05:53:58;10.30;99.90
45435;DHT22;31183;47.404;8.500;2023-04-24T05:56:25;10.40;99.90
45435;DHT22;31183;47.404;8.500;2023-04-24T05:58:52;10.50;99.90
45435;DHT22;31183;47.404;8.500;2023-04-24T06:01:18;10.70;99.90
45435;DHT22;31183;47.404;8.500;2023-04-24T06:03:46;10.70;99.90
45435;DHT22;31183;47.404;8.500;2023-04-24T06:06:12;10.70;99.90
45435;DHT22;31183;47.404;8.500;2023-04-24T06:08:39;10.60;99.90
45435;DHT22;31183;47.404;8.500;2023-04-24T06:11:06;10.50;99.90
45435;DHT22;31183;47.404;8.500;2023-04-24T06:13:33;10.60;99.90
45435;DHT22;31183;47.404;8.500;2023-04-24T06:15:59;10.60;99.90
45435;DHT22;31183;47.404;8.500;2023-04-24T06:18:26;10.60;99.90
45435;DHT22;31183;47.404;8.500;2023-04-24T06:20:52;10.60;99.90
45435;DHT22;31183;47.404;8.500;2023-04-24T06:23:19;10.60;99.90
45435;DHT22;31183;47.404;8.500;2023-04-24T06:25:46;10.70;99.90
45435;DHT22;31183;47.404;8.500;2023-04-24T06:28:12;10.70;99.90
45435;DHT22;31183;47.404;8.500;2023-04-24T06:30:39;10.70;99.90
45435;DHT22;31183;47.404;8.500;2023-04-24T06:33:05;10.90;99.90
45435;DHT22;31183;47.404;8.500;2023-04-24T06:35:46;10.90;99.90
45435;DHT22;31183;47.404;8.500;2023-04-24T06:38:13;11.40;99.90
45435;DHT22;31183;47.404;8.500;2023-04-24T06:40:39;12.10;99.90
45435;DHT22;31183;47.404;8.500;2023-04-24T06:43:06;12.90;98.60
45435;DHT22;31183;47.404;8.500;2023-04-24T06:45:33;13.60;96.80
45435;DHT22;31183;47.404;8.500;2023-04-24T06:48:00;14.80;95.00
45435;DHT22;31183;47.404;8.500;2023-04-24T06:50:26;14.60;92.70
45435;DHT22;31183;47.404;8.500;2023-04-24T06:52:53;14.10;93.40
45435;DHT22;31183;47.404;8.500;2023-04-24T06:55:19;13.30;94.20
45435;DHT22;31183;47.404;8.500;2023-04-24T06:57:46;12.80;96.10
45435;DHT22;31183;47.404;8.500;2023-04-24T07:00:13;13.20;95.60
45435;DHT22;31183;47.404;8.500;2023-04-24T07:02:40;13.20;95.30
45435;DHT22;31183;47.404;8.500;2023-04-24T07:05:07;13.40;95.10
45435;DHT22;31183;47.404;8.500;2023-04-24T07:07:35;13.50;95.00
45435;DHT22;31183;47.404;8.500;2023-04-24T07:10:05;13.70;93.90
45435;DHT22;31183;47.404;8.500;2023-04-24T07:12:31;13.50;93.90
45435;DHT22;31183;47.404;8.500;2023-04-24T07:15:00;13.50;94.30
45435;DHT22;31183;47.404;8.500;2023-04-24T07:17:27;13.40;94.00
45435;DHT22;31183;47.404;8.500;2023-04-24T07:19:53;13.20;94.00
45435;DHT22;31183;47.404;8.500;2023-04-24T07:22:20;12.90;94.70
45435;DHT22;31183;47.404;8.500;2023-04-24T07:24:47;14.30;93.30
45435;DHT22;31183;47.404;8.500;2023-04-24T07:27:13;16.20;84.90
45435;DHT22;31183;47.404;8.500;2023-04-24T07:29:41;16.70;84.20
45435;DHT22;31183;47.404;8.500;2023-04-24T07:32:08;18.30;76.50
45435;DHT22;31183;47.404;8.500;2023-04-24T07:34:35;18.30;74.80
45435;DHT22;31183;47.404;8.500;2023-04-24T07:37:02;18.30;74.00
45435;DHT22;31183;47.404;8.500;2023-04-24T07:39:29;17.40;75.10
45435;DHT22;31183;47.404;8.500;2023-04-24T07:41:56;16.80;77.60
45435;DHT22;31183;47.404;8.500;2023-04-24T07:44:22;16.80;78.50
45435;DHT22;31183;47.404;8.500;2023-04-24T07:46:49;16.00;80.50
45435;DHT22;31183;47.404;8.500;2023-04-24T07:49:16;15.10;84.60
45435;DHT22;31183;47.404;8.500;2023-04-24T07:51:45;14.40;87.70
45435;DHT22;31183;47.404;8.500;2023-04-24T07:54:12;14.00;89.90
45435;DHT22;31183;47.404;8.500;2023-04-24T07:56:38;13.70;90.50
45435;DHT22;31183;47.404;8.500;2023-04-24T07:59:06;13.50;91.10
45435;DHT22;31183;47.404;8.500;2023-04-24T08:01:32;13.10;90.50
45435;DHT22;31183;47.404;8.500;2023-04-24T08:03:59;12.80;90.60
45435;DHT22;31183;47.404;8.500;2023-04-24T08:06:26;12.30;91.20
45435;DHT22;31183;47.404;8.500;2023-04-24T08:08:57;12.10;91.80
45435;DHT22;31183;47.404;8.500;2023-04-24T08:11:24;11.90;91.80
45435;DHT22;31183;47.404;8.500;2023-04-24T08:13:51;11.70;92.30
45435;DHT22;31183;47.404;8.500;2023-04-24T08:16:18;11.60;93.10
45435;DHT22;31183;47.404;8.500;2023-04-24T08:18:45;11.50;93.50
45435;DHT22;31183;47.404;8.500;2023-04-24T08:21:11;11.40;93.70
45435;DHT22;31183;47.404;8.500;2023-04-24T08:23:43;11.40;94.20
45435;DHT22;31183;47.404;8.500;2023-04-24T08:26:10;11.40;94.40
45435;DHT22;31183;47.404;8.500;2023-04-24T08:28:37;11.40;94.60
45435;DHT22;31183;47.404;8.500;2023-04-24T08:31:04;11.30;94.80
45435;DHT22;31183;47.404;8.500;2023-04-24T08:33:31;11.40;95.10
45435;DHT22;31183;47.404;8.500;2023-04-24T08:36:04;11.40;95.30
45435;DHT22;31183;47.404;8.500;2023-04-24T08:38:31;11.60;95.10
45435;DHT22;31183;47.404;8.500;2023-04-24T08:40:59;11.70;94.90
45435;DHT22;31183;47.404;8.500;2023-04-24T08:43:27;11.70;94.80
45435;DHT22;31183;47.404;8.500;2023-04-24T08:45:56;11.70;94.30
45435;DHT22;31183;47.404;8.500;2023-04-24T08:48:24;12.60;93.70
45435;DHT22;31183;47.404;8.500;2023-04-24T08:50:58;15.10;86.50
45435;DHT22;31183;47.404;8.500;2023-04-24T08:53:26;18.60;70.40
45435;DHT22;31183;47.404;8.500;2023-04-24T08:55:54;18.80;71.60
45435;DHT22;31183;47.404;8.500;2023-04-24T08:58:22;18.80;70.80
45435;DHT22;31183;47.404;8.500;2023-04-24T09:00:53;17.50;74.70
45435;DHT22;31183;47.404;8.500;2023-04-24T09:03:21;16.50;79.10
45435;DHT22;31183;47.404;8.500;2023-04-24T09:05:49;19.10;73.80
45435;DHT22;31183;47.404;8.500;2023-04-24T09:08:18;23.90;58.90
45435;DHT22;31183;47.404;8.500;2023-04-24T09:10:45;26.60;50.80
45435;DHT22;31183;47.404;8.500;2023-04-24T09:13:16;29.40;46.50
45435;DHT22;31183;47.404;8.500;2023-04-24T09:15:42;31.10;43.90
45435;DHT22;31183;47.404;8.500;2023-04-24T09:18:09;31.40;42.10
45435;DHT22;31183;47.404;8.500;2023-04-24T09:23:31;31.30;41.90
45435;DHT22;31183;47.404;8.500;2023-04-24T09:25:59;26.40;47.00
45435;DHT22;31183;47.404;8.500;2023-04-24T09:28:30;23.50;52.20
45435;DHT22;31183;47.404;8.500;2023-04-24T09:31:14;22.20;52.60
45435;DHT22;31183;47.404;8.500;2023-04-24T09:33:55;19.90;57.30
45435;DHT22;31183;47.404;8.500;2023-04-24T09:36:34;17.90;59.90
45435;DHT22;31183;47.404;8.500;2023-04-24T09:39:08;16.60;63.70
45435;DHT22;31183;47.404;8.500;2023-04-24T09:41:35;15.70;66.70
45435;DHT22;31183;47.404;8.500;2023-04-24T09:44:12;15.20;69.60
45435;DHT22;31183;47.404;8.500;2023-04-24T09:46:41;14.90;71.70
45435;DHT22;31183;47.404;8.500;2023-04-24T09:49:10;15.30;71.50
45435;DHT22;31183;47.404;8.500;2023-04-24T09:51:38;16.80;66.30
45435;DHT22;31183;47.404;8.500;2023-04-24T09:54:13;17.60;63.80
45435;DHT22;31183;47.404;8.500;2023-04-24T09:56:45;19.40;59.70
45435;DHT22;31183;47.404;8.500;2023-04-24T09:59:13;21.40;57.30
45435;DHT22;31183;47.404;8.500;2023-04-24T10:01:40;21.70;57.20
45435;DHT22;31183;47.404;8.500;2023-04-24T10:04:21;21.10;57.80
45435;DHT22;31183;47.404;8.500;2023-04-24T10:06:50;20.30;58.60
45435;DHT22;31183;47.404;8.500;2023-04-24T10:09:18;19.70;57.10
45435;DHT22;31183;47.404;8.500;2023-04-24T10:11:47;19.00;60.40
45435;DHT22;31183;47.404;8.500;2023-04-24T10:14:16;18.70;61.80
45435;DHT22;31183;47.404;8.500;2023-04-24T10:16:44;18.10;61.70
45435;DHT22;31183;47.404;8.500;2023-04-24T10:19:14;17.80;63.70
45435;DHT22;31183;47.404;8.500;2023-04-24T10:21:43;17.60;65.00
45435;DHT22;31183;47.404;8.500;2023-04-24T10:24:18;17.30;64.20
45435;DHT22;31183;47.404;8.500;2023-04-24T10:26:48;17.10;64.70
45435;DHT22;31183;47.404;8.500;2023-04-24T10:29:17;17.20;65.30
45435;DHT22;31183;47.404;8.500;2023-04-24T10:31:44;17.20;65.70
45435;DHT22;31183;47.404;8.500;2023-04-24T10:34:15;17.20;65.10
45435;DHT22;31183;47.404;8.500;2023-04-24T10:36:47;17.20;65.20
45435;DHT22;31183;47.404;8.500;2023-04-24T10:39:15;17.30;65.10
45435;DHT22;31183;47.404;8.500;2023-04-24T10:41:43;17.20;65.20
45435;DHT22;31183;47.404;8.500;2023-04-24T10:44:11;17.10;63.90
45435;DHT22;31183;47.404;8.500;2023-04-24T10:46:39;17.10;62.50
45435;DHT22;31183;47.404;8.500;2023-04-24T10:49:08;16.80;61.50
45435;DHT22;31183;47.404;8.500;2023-04-24T10:51:50;16.80;61.90
45435;DHT22;31183;47.404;8.500;2023-04-24T10:54:23;16.60;62.40
45435;DHT22;31183;47.404;8.500;2023-04-24T10:56:51;16.70;63.70
45435;DHT22;31183;47.404;8.500;2023-04-24T10:59:25;16.50;62.70
45435;DHT22;31183;47.404;8.500;2023-04-24T11:01:54;16.50;62.30
45435;DHT22;31183;47.404;8.500;2023-04-24T11:04:32;16.50;62.60
45435;DHT22;31183;47.404;8.500;2023-04-24T11:06:59;16.60;62.70
45435;DHT22;31183;47.404;8.500;2023-04-24T11:09:27;16.50;62.70
45435;DHT22;31183;47.404;8.500;2023-04-24T11:12:06;16.40;63.50
45435;DHT22;31183;47.404;8.500;2023-04-24T11:17:38;16.00;65.70
45435;DHT22;31183;47.404;8.500;2023-04-24T11:20:11;16.00;65.40
45435;DHT22;31183;47.404;8.500;2023-04-24T11:22:54;15.90;64.00
45435;DHT22;31183;47.404;8.500;2023-04-24T11:25:22;15.90;64.90
45435;DHT22;31183;47.404;8.500;2023-04-24T11:28:03;16.00;65.40
45435;DHT22;31183;47.404;8.500;2023-04-24T11:30:31;16.10;64.30
45435;DHT22;31183;47.404;8.500;2023-04-24T11:33:03;16.00;63.50
45435;DHT22;31183;47.404;8.500;2023-04-24T11:35:35;16.10;63.70
45435;DHT22;31183;47.404;8.500;2023-04-24T11:38:03;16.00;64.10
45435;DHT22;31183;47.404;8.500;2023-04-24T11:40:34;15.90;63.90
45435;DHT22;31183;47.404;8.500;2023-04-24T11:43:01;15.70;64.60
45435;DHT22;31183;47.404;8.500;2023-04-24T11:45:29;15.70;65.80
45435;DHT22;31183;47.404;8.500;2023-04-24T11:47:56;15.80;65.60
45435;DHT22;31183;47.404;8.500;2023-04-24T11:50:25;15.90;66.70
45435;DHT22;31183;47.404;8.500;2023-04-24T11:52:53;15.80;65.60
45435;DHT22;31183;47.404;8.500;2023-04-24T11:57:52;15.80;66.20
45435;DHT22;31183;47.404;8.500;2023-04-24T12:00:21;16.00;66.00
45435;DHT22;31183;47.404;8.500;2023-04-24T12:02:49;16.00;66.60
45435;DHT22;31183;47.404;8.500;2023-04-24T12:05:23;16.00;65.60
45435;DHT22;31183;47.404;8.500;2023-04-24T12:07:50;15.90;65.40
45435;DHT22;31183;47.404;8.500;2023-04-24T12:10:24;15.70;66.10
45435;DHT22;31183;47.404;8.500;2023-04-24T12:12:52;15.50;66.30
45435;DHT22;31183;47.404;8.500;2023-04-24T12:15:20;15.60;67.10
45435;DHT22;31183;47.404;8.500;2023-04-24T12:17:48;15.60;67.80
45435;DHT22;31183;47.404;8.500;2023-04-24T12:20:16;15.70;68.20
45435;DHT22;31183;47.404;8.500;2023-04-24T12:22:54;15.60;67.80
45435;DHT22;31183;47.404;8.500;2023-04-24T12:25:34;15.40;66.10
45435;DHT22;31183;47.404;8.500;2023-04-24T12:30:38;15.10;65.50
45435;DHT22;31183;47.404;8.500;2023-04-24T12:33:05;15.00;66.60
45435;DHT22;31183;47.404;8.500;2023-04-24T12:35:32;14.90;70.30
45435;DHT22;31183;47.404;8.500;2023-04-24T12:38:11;15.00;72.20
45435;DHT22;31183;47.404;8.500;2023-04-24T12:40:40;15.10;72.60
45435;DHT22;31183;47.404;8.500;2023-04-24T12:43:14;15.10;72.90
45435;DHT22;31183;47.404;8.500;2023-04-24T12:45:42;15.20;72.80
45435;DHT22;31183;47.404;8.500;2023-04-24T12:48:08;15.30;73.20
45435;DHT22;31183;47.404;8.500;2023-04-24T12:50:35;15.40;72.60
45435;DHT22;31183;47.404;8.500;2023-04-24T12:53:01;15.40;70.80
45435;DHT22;31183;47.404;8.500;2023-04-24T12:55:28;15.40;70.00
45435;DHT22;31183;47.404;8.500;2023-04-24T12:57:55;15.50;70.60
45435;DHT22;31183;47.404;8.500;2023-04-24T13:00:22;15.50;70.60
45435;DHT22;31183;47.404;8.500;2023-04-24T13:02:49;15.40;69.80
45435;DHT22;31183;47.404;8.500;2023-04-24T13:05:16;15.30;69.60
45435;DHT22;31183;47.404;8.500;2023-04-24T13:07:43;15.40;69.50
45435;DHT22;31183;47.404;8.500;2023-04-24T13:10:10;15.30;66.90
45435;DHT22;31183;47.404;8.500;2023-04-24T13:12:36;15.10;67.10
45435;DHT22;31183;47.404;8.500;2023-04-24T13:15:04;15.00;68.80
45435;DHT22;31183;47.404;8.500;2023-04-24T13:17:31;15.00;69.70
45435;DHT22;31183;47.404;8.500;2023-04-24T13:19:57;14.90;69.00
45435;DHT22;31183;47.404;8.500;2023-04-24T13:22:24;14.90;67.80
45435;DHT22;31183;47.404;8.500;2023-04-24T13:24:51;15.00;67.30
45435;DHT22;31183;47.404;8.500;2023-04-24T13:27:18;15.10;66.50
45435;DHT22;31183;47.404;8.500;2023-04-24T13:29:45;15.00;66.10
45435;DHT22;31183;47.404;8.500;2023-04-24T13:32:12;15.00;66.40
45435;DHT22;31183;47.404;8.500;2023-04-24T13:34:39;15.10;68.20
45435;DHT22;31183;47.404;8.500;2023-04-24T13:37:05;15.10;67.10
45435;DHT22;31183;47.404;8.500;2023-04-24T13:39:32;15.10;67.00
45435;DHT22;31183;47.404;8.500;2023-04-24T13:41:59;15.10;68.10
45435;DHT22;31183;47.404;8.500;2023-04-24T13:44:29;15.10;69.40
45435;DHT22;31183;47.404;8.500;2023-04-24T13:46:57;15.10;70.10
45435;DHT22;31183;47.404;8.500;2023-04-24T13:49:24;15.10;70.80
45435;DHT22;31183;47.404;8.500;2023-04-24T13:51:52;15.30;70.30
45435;DHT22;31183;47.404;8.500;2023-04-24T13:54:19;15.30;69.00
45435;DHT22;31183;47.404;8.500;2023-04-24T13:56:46;15.30;69.90
45435;DHT22;31183;47.404;8.500;2023-04-24T13:59:13;15.30;70.80
45435;DHT22;31183;47.404;8.500;2023-04-24T14:01:39;15.30;70.00
45435;DHT22;31183;47.404;8.500;2023-04-24T14:04:06;15.20;70.10
45435;DHT22;31183;47.404;8.500;2023-04-24T14:06:33;15.20;69.80
45435;DHT22;31183;47.404;8.500;2023-04-24T14:09:00;15.20;70.30
45435;DHT22;31183;47.404;8.500;2023-04-24T14:11:26;15.20;69.60
45435;DHT22;31183;47.404;8.500;2023-04-24T14:13:54;15.10;70.10
45435;DHT22;31183;47.404;8.500;2023-04-24T14:16:22;15.10;70.20
45435;DHT22;31183;47.404;8.500;2023-04-24T14:18:49;15.00;70.00
45435;DHT22;31183;47.404;8.500;2023-04-24T14:21:16;14.90;70.80
45435;DHT22;31183;47.404;8.500;2023-04-24T14:23:43;14.60;70.80
45435;DHT22;31183;47.404;8.500;2023-04-24T14:26:10;14.60;72.50
45435;DHT22;31183;47.404;8.500;2023-04-24T14:28:37;14.70;73.20
45435;DHT22;31183;47.404;8.500;2023-04-24T14:31:04;14.80;73.40
45435;DHT22;31183;47.404;8.500;2023-04-24T14:33:31;14.80;74.10
45435;DHT22;31183;47.404;8.500;2023-04-24T14:35:57;14.80;73.90
45435;DHT22;31183;47.404;8.500;2023-04-24T14:38:24;14.80;74.00
45435;DHT22;31183;47.404;8.500;2023-04-24T14:40:51;14.90;74.30
45435;DHT22;31183;47.404;8.500;2023-04-24T14:43:32;15.10;74.20
45435;DHT22;31183;47.404;8.500;2023-04-24T14:45:59;15.00;71.70
45435;DHT22;31183;47.404;8.500;2023-04-24T14:48:26;15.00;72.40
45435;DHT22;31183;47.404;8.500;2023-04-24T14:50:53;15.00;71.70
45435;DHT22;31183;47.404;8.500;2023-04-24T14:53:20;14.90;73.30
45435;DHT22;31183;47.404;8.500;2023-04-24T14:55:47;14.80;73.40
45435;DHT22;31183;47.404;8.500;2023-04-24T14:58:13;14.70;73.30
45435;DHT22;31183;47.404;8.500;2023-04-24T15:00:40;14.50;73.40
45435;DHT22;31183;47.404;8.500;2023-04-24T15:03:07;14.40;73.20
45435;DHT22;31183;47.404;8.500;2023-04-24T15:05:34;14.40;73.50
45435;DHT22;31183;47.404;8.500;2023-04-24T15:08:01;14.40;73.30
45435;DHT22;31183;47.404;8.500;2023-04-24T15:10:28;14.50;73.60
45435;DHT22;31183;47.404;8.500;2023-04-24T15:12:56;14.60;73.40
45435;DHT22;31183;47.404;8.500;2023-04-24T15:15:22;14.60;73.40
45435;DHT22;31183;47.404;8.500;2023-04-24T15:17:49;14.60;72.80
45435;DHT22;31183;47.404;8.500;2023-04-24T15:20:16;14.50;72.80
45435;DHT22;31183;47.404;8.500;2023-04-24T15:22:42;14.50;73.10
45435;DHT22;31183;47.404;8.500;2023-04-24T15:25:10;14.50;73.20
45435;DHT22;31183;47.404;8.500;2023-04-24T15:27:43;14.50;73.30
45435;DHT22;31183;47.404;8.500;2023-04-24T15:30:11;14.40;72.70
45435;DHT22;31183;47.404;8.500;2023-04-24T15:32:38;14.40;72.60
45435;DHT22;31183;47.404;8.500;2023-04-24T15:35:06;14.40;72.20
45435;DHT22;31183;47.404;8.500;2023-04-24T15:37:36;14.50;73.20
45435;DHT22;31183;47.404;8.500;2023-04-24T15:40:03;14.50;72.60
45435;DHT22;31183;47.404;8.500;2023-04-24T15:42:32;14.60;72.40
45435;DHT22;31183;47.404;8.500;2023-04-24T15:44:59;14.70;72.20